createdAt,value
2022-12-03T00:02:04.487Z,17.52
2022-12-03T00:04:31.693Z,17.88
2022-12-03T00:06:58.915Z,17.65
2022-12-03T00:09:26.073Z,16.80
2022-12-03T00:11:53.593Z,16.46
2022-12-03T00:14:22.312Z,16.71
2022-12-03T00:16:49.876Z,16.11
2022-12-03T00:19:17.033Z,16.24
2022-12-03T00:21:44.120Z,15.81
2022-12-03T00:24:11.233Z,15.31
2022-12-03T00:26:38.573Z,14.63
2022-12-03T00:29:05.814Z,14.63
2022-12-03T00:31:34.476Z,14.26
2022-12-03T00:34:01.794Z,13.48
2022-12-03T00:36:28.973Z,13.86
2022-12-03T00:38:56.035Z,13.95
2022-12-03T00:41:23.374Z,14.05
2022-12-03T00:43:50.413Z,13.94
2022-12-03T00:46:21.371Z,14.17
2022-12-03T00:48:50.533Z,14.44
2022-12-03T00:51:17.793Z,15.52
2022-12-03T00:53:44.955Z,16.55
2022-12-03T00:56:12.414Z,14.85
2022-12-03T00:58:39.495Z,14.63
2022-12-03T01:01:06.653Z,14.58
2022-12-03T01:03:33.775Z,14.00
2022-12-03T01:06:02.394Z,13.96
2022-12-03T01:08:29.576Z,13.76
2022-12-03T01:10:56.712Z,13.95
2022-12-03T01:13:23.853Z,13.60
2022-12-03T01:15:50.981Z,13.90
2022-12-03T01:18:18.276Z,13.98
2022-12-03T01:20:45.453Z,13.93
2022-12-03T01:23:13.937Z,13.94
2022-12-03T01:25:41.032Z,14.13
2022-12-03T01:28:08.102Z,14.45
2022-12-03T01:30:35.199Z,13.92
2022-12-03T01:33:02.233Z,14.28
2022-12-03T01:35:29.295Z,14.73
2022-12-03T01:37:56.372Z,13.39
2022-12-03T01:40:25.134Z,13.29
2022-12-03T01:42:52.251Z,11.98
2022-12-03T01:45:23.939Z,12.20
2022-12-03T01:47:51.411Z,12.05
2022-12-03T01:50:27.380Z,11.70
2022-12-03T01:52:58.394Z,12.24
2022-12-03T01:55:27.391Z,11.82
2022-12-03T01:57:57.553Z,10.88
2022-12-03T02:00:27.173Z,11.41
2022-12-03T02:02:57.198Z,11.23
2022-12-03T02:05:26.866Z,10.92
2022-12-03T02:07:55.013Z,11.68
2022-12-03T02:10:31.251Z,11.41
2022-12-03T02:13:03.010Z,10.89
2022-12-03T02:15:30.550Z,11.61
2022-12-03T02:17:57.912Z,11.66
2022-12-03T02:20:25.335Z,11.75
2022-12-03T02:23:05.151Z,11.76
2022-12-03T02:25:36.610Z,11.98
2022-12-03T02:28:06.270Z,12.42
2022-12-03T02:30:34.632Z,11.77
2022-12-03T02:33:02.553Z,11.87
2022-12-03T02:35:34.056Z,12.35
2022-12-03T02:38:08.517Z,12.41
2022-12-03T02:40:38.191Z,11.47
2022-12-03T02:43:06.611Z,12.40
2022-12-03T02:45:38.367Z,12.30
2022-12-03T02:48:11.566Z,12.19
2022-12-03T02:50:44.025Z,12.91
2022-12-03T02:53:17.817Z,12.98
2022-12-03T02:55:47.559Z,12.58
2022-12-03T02:58:16.098Z,13.52
2022-12-03T03:00:44.927Z,13.24
2022-12-03T03:03:12.985Z,13.13
2022-12-03T03:05:41.308Z,13.08
2022-12-03T03:08:10.808Z,13.48
2022-12-03T03:10:41.027Z,14.06
2022-12-03T03:13:12.343Z,13.28
2022-12-03T03:15:40.880Z,13.31
2022-12-03T03:18:10.241Z,13.33
2022-12-03T03:20:38.360Z,13.54
2022-12-03T03:23:12.994Z,13.75
2022-12-03T03:25:43.779Z,13.33
2022-12-03T03:28:14.105Z,13.40
2022-12-03T03:30:43.188Z,13.50
2022-12-03T03:33:12.620Z,13.11
2022-12-03T03:35:40.859Z,13.06
2022-12-03T03:38:10.022Z,12.90
2022-12-03T03:40:38.980Z,12.77
2022-12-03T03:43:08.600Z,12.70
2022-12-03T03:45:37.148Z,12.90
2022-12-03T03:48:04.525Z,12.60
2022-12-03T03:50:33.100Z,12.90
2022-12-03T03:53:02.903Z,13.11
2022-12-03T03:55:30.930Z,13.50
2022-12-03T03:57:59.049Z,13.31
2022-12-03T04:00:26.449Z,13.08
2022-12-03T04:02:55.049Z,13.16
2022-12-03T04:05:24.459Z,12.77
2022-12-03T04:07:51.638Z,12.74
2022-12-03T04:10:19.061Z,12.94
2022-12-03T04:12:46.120Z,13.26
2022-12-03T04:15:13.131Z,12.68
2022-12-03T04:17:40.140Z,13.17
2022-12-03T04:20:09.820Z,13.10
2022-12-03T04:22:36.940Z,12.54
2022-12-03T04:25:04.640Z,12.65
2022-12-03T04:27:31.724Z,12.50
2022-12-03T04:29:58.840Z,12.42
2022-12-03T04:32:25.909Z,12.43
2022-12-03T04:34:53.237Z,12.44
2022-12-03T04:37:22.012Z,12.40
2022-12-03T04:39:49.118Z,11.84
2022-12-03T04:42:16.631Z,12.46
2022-12-03T04:44:43.684Z,11.80
2022-12-03T04:47:12.484Z,12.30
2022-12-03T04:49:41.759Z,12.05
2022-12-03T04:52:09.900Z,12.50
2022-12-03T04:54:39.668Z,11.55
2022-12-03T04:57:07.810Z,11.87
2022-12-03T04:59:36.348Z,11.65
2022-12-03T05:02:04.832Z,11.69
2022-12-03T05:04:32.078Z,11.40
2022-12-03T05:06:59.269Z,11.69
2022-12-03T05:09:26.453Z,11.09
2022-12-03T05:11:55.051Z,11.68
2022-12-03T05:14:22.082Z,11.79
2022-12-03T05:16:49.167Z,11.71
2022-12-03T05:19:16.302Z,11.55
2022-12-03T05:21:43.463Z,11.40
2022-12-03T05:24:10.563Z,11.35
2022-12-03T05:26:37.644Z,11.24
2022-12-03T05:29:06.143Z,11.86
2022-12-03T05:31:33.344Z,11.46
2022-12-03T05:34:00.565Z,11.43
2022-12-03T05:36:27.690Z,11.22
2022-12-03T05:38:54.810Z,11.34
2022-12-03T05:41:21.887Z,11.41
2022-12-03T05:43:49.024Z,10.97
2022-12-03T05:46:17.763Z,11.01
2022-12-03T05:48:44.939Z,10.71
2022-12-03T05:51:12.180Z,10.24
2022-12-03T05:53:39.277Z,11.08
2022-12-03T05:56:07.077Z,10.60
2022-12-03T05:58:34.184Z,10.76
2022-12-03T06:01:01.346Z,11.54
2022-12-03T06:03:29.902Z,11.29
2022-12-03T06:05:57.088Z,11.43
2022-12-03T06:08:24.107Z,11.51
2022-12-03T06:10:51.188Z,10.77
2022-12-03T06:13:18.413Z,10.79
2022-12-03T06:15:45.592Z,10.70
2022-12-03T06:18:12.783Z,10.30
2022-12-03T06:20:41.284Z,10.47
2022-12-03T06:23:08.364Z,9.25
2022-12-03T06:25:35.488Z,10.52
2022-12-03T06:28:02.573Z,10.43
2022-12-03T06:30:29.687Z,9.54
2022-12-03T06:32:56.787Z,9.72
2022-12-03T06:35:23.936Z,9.89
2022-12-03T06:37:52.474Z,9.57
2022-12-03T06:40:19.575Z,10.16
2022-12-03T06:42:46.712Z,9.71
2022-12-03T06:45:13.856Z,9.75
2022-12-03T06:47:41.036Z,9.57
2022-12-03T06:50:09.264Z,10.34
2022-12-03T06:52:36.887Z,10.03
2022-12-03T06:55:06.586Z,9.69
2022-12-03T06:57:33.666Z,9.64
2022-12-03T07:00:00.746Z,9.91
2022-12-03T07:02:28.105Z,10.04
2022-12-03T07:04:55.424Z,9.73
2022-12-03T07:07:22.662Z,9.44
2022-12-03T07:09:49.850Z,9.39
2022-12-03T07:12:18.524Z,9.53
2022-12-03T07:14:45.570Z,9.46
2022-12-03T07:17:12.725Z,10.16
2022-12-03T07:19:39.903Z,10.25
2022-12-03T07:22:06.963Z,9.37
2022-12-03T07:24:34.004Z,9.66
2022-12-03T07:27:01.090Z,9.82
2022-12-03T07:29:29.667Z,9.60
2022-12-03T07:31:56.817Z,9.71
2022-12-03T07:34:24.020Z,10.22
2022-12-03T07:36:51.196Z,10.00
2022-12-03T07:39:18.236Z,10.00
2022-12-03T07:41:45.996Z,10.01
2022-12-03T07:44:14.922Z,9.86
2022-12-03T07:46:46.001Z,9.97
2022-12-03T07:49:13.362Z,9.84
2022-12-03T07:51:41.555Z,10.10
2022-12-03T07:54:08.898Z,9.54
2022-12-03T07:56:35.960Z,10.12
2022-12-03T07:59:03.095Z,10.54
2022-12-03T08:01:30.284Z,9.83
2022-12-03T08:03:58.866Z,10.09
2022-12-03T08:06:26.410Z,11.28
2022-12-03T08:08:53.485Z,10.59
2022-12-03T08:11:20.578Z,10.29
2022-12-03T08:13:47.717Z,10.59
2022-12-03T08:16:18.307Z,10.65
2022-12-03T08:18:47.641Z,10.34
2022-12-03T08:21:20.084Z,10.20
2022-12-03T08:23:47.803Z,9.71
2022-12-03T08:26:22.121Z,10.54
2022-12-03T08:28:49.381Z,11.03
2022-12-03T08:31:20.849Z,10.37
2022-12-03T08:33:50.141Z,10.43
2022-12-03T08:36:23.122Z,11.01
2022-12-03T08:38:52.641Z,11.48
2022-12-03T08:41:20.883Z,10.87
2022-12-03T08:43:48.022Z,10.72
2022-12-03T08:46:19.551Z,11.30
2022-12-03T08:48:48.989Z,10.78
2022-12-03T08:51:21.942Z,11.34
2022-12-03T08:53:55.441Z,11.79
2022-12-03T08:56:29.002Z,10.72
2022-12-03T08:58:59.303Z,11.53
2022-12-03T09:01:38.198Z,11.02
2022-12-03T09:04:31.111Z,10.74
2022-12-03T09:06:59.701Z,11.69
2022-12-03T09:09:26.925Z,12.09
2022-12-03T09:11:54.219Z,12.80
2022-12-03T09:14:21.870Z,9.76
2022-12-03T09:16:52.527Z,8.70
2022-12-03T09:19:19.649Z,9.90
2022-12-03T09:21:46.803Z,10.44
2022-12-03T09:24:15.362Z,9.66
2022-12-03T09:26:42.480Z,9.82
2022-12-03T09:29:12.405Z,12.47
2022-12-03T09:31:40.407Z,13.04
2022-12-03T09:34:08.359Z,13.03
2022-12-03T09:36:50.679Z,12.84
2022-12-03T09:39:19.380Z,12.46
2022-12-03T09:41:46.893Z,12.01
2022-12-03T09:44:17.981Z,12.59
2022-12-03T09:46:48.010Z,13.21
2022-12-03T09:49:18.349Z,13.36
2022-12-03T09:51:46.349Z,12.54
2022-12-03T09:54:24.593Z,12.47
2022-12-03T09:56:53.053Z,12.30
2022-12-03T09:59:22.126Z,11.15
2022-12-03T10:01:49.604Z,9.13
2022-12-03T10:04:17.052Z,9.18
2022-12-03T10:06:46.070Z,9.93
2022-12-03T10:09:22.521Z,10.74
2022-12-03T10:11:51.455Z,10.44
2022-12-03T10:14:20.640Z,12.38
2022-12-03T10:16:48.514Z,12.06
2022-12-03T10:19:22.355Z,12.60
2022-12-03T10:21:49.722Z,12.04
2022-12-03T10:24:23.358Z,13.14
2022-12-03T10:26:54.360Z,13.91
2022-12-03T10:29:31.328Z,13.96
2022-12-03T10:32:03.144Z,14.06
2022-12-03T10:34:32.921Z,14.53
2022-12-03T10:37:12.265Z,13.71
2022-12-03T10:39:57.769Z,14.00
2022-12-03T10:42:28.082Z,13.00
2022-12-03T10:45:14.560Z,12.32
2022-12-03T10:47:41.987Z,13.62
2022-12-03T10:50:19.959Z,13.20
2022-12-03T10:52:47.367Z,14.01
2022-12-03T10:55:16.206Z,13.80
2022-12-03T10:57:46.038Z,13.49
2022-12-03T11:00:17.638Z,14.73
2022-12-03T11:02:45.151Z,13.69
2022-12-03T11:05:15.784Z,14.50
2022-12-03T11:07:44.400Z,13.77
2022-12-03T11:10:16.727Z,13.68
2022-12-03T11:13:23.557Z,13.58
2022-12-03T11:15:50.779Z,13.77
2022-12-03T11:18:50.824Z,13.86
2022-12-03T11:21:18.129Z,12.86
2022-12-03T11:24:15.249Z,13.96
2022-12-03T11:27:22.018Z,13.66
2022-12-03T11:30:10.018Z,13.38
2022-12-03T11:33:04.222Z,12.54
2022-12-03T11:36:11.722Z,13.25
2022-12-03T11:38:54.539Z,11.31
2022-12-03T11:41:33.717Z,12.29
2022-12-03T11:44:31.759Z,13.70
2022-12-03T11:47:13.297Z,14.59
2022-12-03T11:49:48.062Z,15.38
2022-12-03T11:52:25.677Z,15.12
2022-12-03T11:55:00.038Z,15.14
2022-12-03T11:57:33.520Z,15.35
2022-12-03T12:00:05.209Z,16.22
2022-12-03T12:02:33.892Z,15.95
2022-12-03T12:05:16.479Z,16.15
2022-12-03T12:07:43.868Z,16.38
2022-12-03T12:10:11.905Z,15.69
2022-12-03T12:12:43.421Z,15.12
2022-12-03T12:15:40.759Z,15.66
2022-12-03T12:18:41.071Z,15.88
2022-12-03T12:21:39.871Z,16.03
2022-12-03T12:24:32.623Z,16.49
2022-12-03T12:27:02.685Z,16.89
2022-12-03T12:29:29.764Z,16.16
2022-12-03T12:32:18.241Z,16.28
2022-12-03T12:34:49.522Z,16.82
2022-12-03T12:37:20.604Z,16.97
2022-12-03T12:39:48.522Z,17.18
2022-12-03T12:42:32.985Z,16.82
2022-12-03T12:45:09.091Z,17.48
2022-12-03T12:47:36.751Z,17.02
2022-12-03T12:50:11.141Z,16.89
2022-12-03T12:52:48.503Z,17.23
2022-12-03T12:55:15.642Z,16.33
2022-12-03T12:57:42.662Z,17.22
2022-12-03T13:00:15.495Z,16.59
2022-12-03T13:02:48.912Z,16.34
2022-12-03T13:05:18.422Z,16.25
2022-12-03T13:07:46.176Z,15.40
2022-12-03T13:10:34.143Z,16.72
2022-12-03T13:13:15.753Z,16.84
2022-12-03T13:15:49.643Z,16.51
2022-12-03T13:18:28.101Z,17.15
2022-12-03T13:20:56.762Z,15.20
2022-12-03T13:23:29.782Z,11.53
2022-12-03T13:26:04.008Z,16.84
2022-12-03T13:28:42.163Z,16.95
2022-12-03T13:31:24.997Z,14.91
2022-12-03T13:33:53.584Z,16.30
2022-12-03T13:36:27.522Z,16.92
2022-12-03T13:38:54.623Z,17.53
2022-12-03T13:41:21.762Z,17.56
2022-12-03T13:43:48.842Z,14.15
2022-12-03T13:46:16.697Z,16.54
2022-12-03T13:48:43.935Z,17.79
2022-12-03T13:51:23.561Z,18.15
2022-12-03T13:53:54.402Z,18.50
2022-12-03T13:56:27.568Z,18.37
2022-12-03T13:58:55.662Z,19.02
2022-12-03T14:01:22.897Z,18.52
2022-12-03T14:03:50.695Z,19.06
2022-12-03T14:06:17.962Z,19.29
2022-12-03T14:08:45.242Z,19.43
2022-12-03T14:11:13.783Z,19.34
2022-12-03T14:13:40.862Z,19.87
2022-12-03T14:16:08.257Z,20.07
2022-12-03T14:18:35.402Z,19.92
2022-12-03T14:21:02.542Z,20.36
2022-12-03T14:23:29.583Z,19.98
2022-12-03T14:25:56.687Z,19.78
2022-12-03T14:28:25.304Z,19.79
2022-12-03T14:30:52.421Z,19.72
2022-12-03T14:33:19.621Z,20.45
2022-12-03T14:35:46.902Z,20.70
2022-12-03T14:38:14.062Z,20.48
2022-12-03T14:40:41.182Z,21.32
2022-12-03T14:43:08.426Z,20.69
2022-12-03T14:45:37.181Z,20.80
2022-12-03T14:48:04.527Z,20.98
2022-12-03T14:50:31.586Z,20.35
2022-12-03T14:52:58.762Z,20.04
2022-12-03T14:55:26.003Z,21.10
2022-12-03T14:57:53.202Z,20.71
2022-12-03T15:00:21.242Z,20.59
2022-12-03T15:02:49.858Z,21.60
2022-12-03T15:05:17.242Z,20.26
2022-12-03T15:07:44.420Z,20.42
2022-12-03T15:10:11.863Z,21.15
2022-12-03T15:12:39.014Z,20.79
2022-12-03T15:15:07.442Z,20.39
2022-12-03T15:17:34.535Z,19.64
2022-12-03T15:20:03.246Z,19.56
2022-12-03T15:22:30.782Z,20.05
2022-12-03T15:24:58.324Z,19.81
2022-12-03T15:27:25.503Z,19.99
2022-12-03T15:29:52.999Z,19.71
2022-12-03T15:32:20.366Z,20.10
2022-12-03T15:34:47.565Z,19.75
2022-12-03T15:37:16.062Z,19.76
2022-12-03T15:39:52.400Z,20.23
2022-12-03T15:42:19.662Z,20.35
2022-12-03T15:44:46.922Z,20.67
2022-12-03T15:47:14.125Z,19.91
2022-12-03T15:49:41.283Z,20.91
2022-12-03T15:52:08.401Z,21.11
2022-12-03T15:54:36.883Z,20.56
2022-12-03T15:57:04.122Z,21.11
2022-12-03T15:59:31.223Z,20.45
2022-12-03T16:01:58.517Z,20.17
2022-12-03T16:04:25.674Z,20.65
2022-12-03T16:06:52.822Z,20.44
2022-12-03T16:09:25.250Z,20.51
2022-12-03T16:11:55.925Z,20.38
2022-12-03T16:14:23.102Z,20.80
2022-12-03T16:16:50.183Z,21.36
2022-12-03T16:19:17.323Z,19.92
2022-12-03T16:21:44.482Z,20.62
2022-12-03T16:24:11.542Z,20.84
2022-12-03T16:26:38.719Z,19.91
2022-12-03T16:29:07.283Z,20.00
2022-12-03T16:31:34.558Z,20.06
2022-12-03T16:34:01.782Z,19.90
2022-12-03T16:36:28.984Z,19.38
2022-12-03T16:38:56.023Z,19.42
2022-12-03T16:41:23.203Z,19.67
2022-12-03T16:43:50.285Z,19.91
2022-12-03T16:46:18.965Z,19.84
2022-12-03T16:48:46.343Z,19.69
2022-12-03T16:51:13.861Z,20.11
2022-12-03T16:53:41.125Z,19.24
2022-12-03T16:56:08.881Z,19.64
2022-12-03T16:58:36.146Z,19.41
2022-12-03T17:01:03.460Z,19.47
2022-12-03T17:03:34.108Z,19.19
2022-12-03T17:06:01.807Z,19.43
2022-12-03T17:08:28.921Z,19.13
2022-12-03T17:10:56.171Z,19.75
2022-12-03T17:13:23.357Z,19.61
2022-12-03T17:15:50.816Z,18.95
2022-12-03T17:18:18.083Z,19.23
2022-12-03T17:20:46.661Z,19.57
2022-12-03T17:23:13.761Z,19.25
2022-12-03T17:25:40.820Z,19.16
2022-12-03T17:28:07.980Z,19.42
2022-12-03T17:30:35.122Z,19.50
2022-12-03T17:33:02.283Z,18.93
2022-12-03T17:35:29.467Z,19.36
2022-12-03T17:37:58.022Z,19.44
2022-12-03T17:40:25.333Z,19.01
2022-12-03T17:42:52.561Z,19.59
2022-12-03T17:45:21.642Z,19.52
2022-12-03T17:47:48.741Z,19.19
2022-12-03T17:50:15.940Z,19.19
2022-12-03T17:52:43.063Z,19.15
2022-12-03T17:55:16.262Z,19.81
2022-12-03T17:57:51.762Z,19.94
2022-12-03T18:00:19.608Z,19.26
2022-12-03T18:02:47.600Z,19.29
2022-12-03T18:05:14.922Z,19.24
2022-12-03T18:07:42.129Z,19.64
2022-12-03T18:10:09.572Z,19.35
2022-12-03T18:12:38.164Z,19.31
2022-12-03T18:15:05.920Z,19.85
2022-12-03T18:17:33.082Z,19.42
2022-12-03T18:20:00.210Z,20.50
2022-12-03T18:22:28.359Z,20.22
2022-12-03T18:24:55.941Z,20.24
2022-12-03T18:27:24.322Z,19.95
2022-12-03T18:29:53.273Z,20.19
2022-12-03T18:32:28.847Z,20.47
2022-12-03T18:34:57.387Z,19.76
2022-12-03T18:37:27.870Z,19.52
2022-12-03T18:39:57.578Z,19.04
2022-12-03T18:42:25.320Z,19.88
2022-12-03T18:44:56.244Z,19.66
2022-12-03T18:47:26.692Z,19.72
2022-12-03T18:49:54.233Z,19.73
2022-12-03T18:52:23.459Z,20.18
2022-12-03T18:54:50.680Z,19.57
2022-12-03T18:57:17.828Z,19.65
2022-12-03T18:59:44.923Z,20.19
2022-12-03T19:02:45.963Z,20.47
2022-12-03T19:05:06.422Z,20.42
2022-12-03T19:07:33.589Z,19.89
2022-12-03T19:10:00.699Z,19.63
2022-12-03T19:12:27.879Z,19.50
2022-12-03T19:14:54.929Z,19.89
2022-12-03T19:17:23.621Z,19.88
2022-12-03T19:19:50.633Z,20.50
2022-12-03T19:22:17.743Z,20.04
2022-12-03T19:24:44.843Z,19.91
2022-12-03T19:27:12.021Z,20.12
2022-12-03T19:29:39.460Z,19.71
2022-12-03T19:32:06.638Z,19.72
2022-12-03T19:34:35.540Z,20.04
2022-12-03T19:37:02.667Z,19.31
2022-12-03T19:39:29.818Z,19.60
2022-12-03T19:41:56.860Z,20.09
2022-12-03T19:44:23.899Z,20.10
2022-12-03T19:46:51.654Z,20.27
2022-12-03T19:49:19.040Z,20.49
2022-12-03T19:51:48.046Z,20.17
2022-12-03T19:54:16.245Z,20.10
2022-12-03T19:56:44.201Z,19.91
2022-12-03T19:59:13.219Z,20.42
2022-12-03T20:01:41.448Z,20.77
2022-12-03T20:04:10.522Z,20.00
2022-12-03T20:06:38.862Z,20.09
2022-12-03T20:09:10.202Z,20.44
2022-12-03T20:11:39.082Z,20.77
2022-12-03T20:14:08.681Z,20.31
2022-12-03T20:16:36.276Z,19.65
2022-12-03T20:19:06.170Z,18.36
2022-12-03T20:21:35.660Z,15.85
2022-12-03T20:24:04.223Z,15.43
2022-12-03T20:26:33.999Z,16.06
2022-12-03T20:29:01.360Z,17.87
2022-12-03T20:31:31.047Z,17.77
2022-12-03T20:34:00.142Z,18.21
2022-12-03T20:36:29.603Z,19.48
2022-12-03T20:38:59.659Z,18.96
2022-12-03T20:41:26.901Z,18.96
2022-12-03T20:43:56.044Z,19.69
2022-12-03T20:46:25.298Z,20.13
2022-12-03T20:48:52.963Z,19.49
2022-12-03T20:51:22.101Z,20.49
2022-12-03T20:53:49.962Z,20.27
2022-12-03T20:56:18.604Z,19.69
2022-12-03T20:58:45.860Z,20.09
2022-12-03T21:01:16.710Z,20.11
2022-12-03T21:03:44.621Z,20.13
2022-12-03T21:06:12.341Z,20.11
2022-12-03T21:08:42.438Z,19.95
2022-12-03T21:11:10.562Z,20.08
2022-12-03T21:13:37.861Z,19.89
2022-12-03T21:16:08.041Z,20.38
2022-12-03T21:18:37.343Z,19.55
2022-12-03T21:21:06.045Z,20.15
2022-12-03T21:23:34.980Z,19.78
2022-12-03T21:26:04.183Z,19.37
2022-12-03T21:28:31.261Z,19.85
2022-12-03T21:31:02.978Z,20.59
2022-12-03T21:33:31.445Z,20.17
2022-12-03T21:36:01.048Z,19.85
2022-12-03T21:38:29.680Z,19.90
2022-12-03T21:40:57.880Z,19.36
2022-12-03T21:43:26.281Z,20.25
2022-12-03T21:45:53.895Z,19.95
2022-12-03T21:48:22.100Z,19.68
2022-12-03T21:51:00.501Z,19.85
2022-12-03T21:53:28.541Z,19.90
2022-12-03T21:55:55.739Z,19.91
2022-12-03T21:58:22.920Z,19.16
2022-12-03T22:00:50.380Z,19.35
2022-12-03T22:03:17.650Z,19.66
2022-12-03T22:05:44.820Z,19.56
2022-12-03T22:08:13.508Z,19.69
2022-12-03T22:10:41.301Z,19.74
2022-12-03T22:13:08.761Z,20.01
2022-12-03T22:15:38.513Z,19.78
2022-12-03T22:18:05.780Z,20.13
2022-12-03T22:20:32.881Z,20.35
2022-12-03T22:22:59.940Z,20.55
2022-12-03T22:25:28.440Z,21.10
2022-12-03T22:27:55.561Z,20.67
2022-12-03T22:30:22.657Z,20.73
2022-12-03T22:32:49.760Z,19.85
2022-12-03T22:35:17.041Z,19.94
2022-12-03T22:37:44.125Z,20.64
2022-12-03T22:40:11.760Z,20.45
2022-12-03T22:42:40.252Z,20.72
2022-12-03T22:45:08.061Z,20.47
2022-12-03T22:47:35.201Z,20.55
2022-12-03T22:50:02.401Z,20.01
2022-12-03T22:52:30.530Z,19.76
2022-12-03T22:54:57.636Z,20.08
2022-12-03T22:57:24.781Z,19.65
2022-12-03T22:59:53.615Z,19.60
2022-12-03T23:02:21.033Z,20.53
2022-12-03T23:04:48.321Z,19.79
2022-12-03T23:07:16.803Z,18.82
2022-12-03T23:09:43.980Z,19.64
2022-12-03T23:12:11.281Z,19.65
2022-12-03T23:14:38.420Z,19.12
2022-12-03T23:17:06.920Z,19.14
2022-12-03T23:19:33.960Z,18.70
2022-12-03T23:22:01.163Z,18.49
2022-12-03T23:24:28.248Z,18.77
2022-12-03T23:26:55.380Z,18.77
2022-12-03T23:29:22.540Z,19.64
2022-12-03T23:31:49.712Z,19.21
2022-12-03T23:34:18.318Z,18.80
2022-12-03T23:36:45.442Z,18.49
2022-12-03T23:39:12.602Z,18.40
2022-12-03T23:41:39.623Z,18.63
2022-12-03T23:44:06.701Z,18.66
2022-12-03T23:46:33.850Z,18.07
2022-12-03T23:49:01.080Z,18.66
2022-12-03T23:51:29.560Z,18.77
2022-12-03T23:53:57.380Z,18.12
2022-12-03T23:56:27.023Z,18.19
2022-12-03T23:58:54.820Z,17.89
